Weather observations for the past three days for
Atlantic
Metric (Imperial)
Date Time (cdt) Wind (kph) Vis. (km) Weather Sky Cond. Temperature (ºC) Relative Humidity Wind Chill (°C) Heat Index (°C) Pressure Precipitation (cm)
Air Dwpt 6 hour altimeter (cm) sea level (mb) 1 hr 3 hr 6 hr
Max. Min.
07 02:35 Calm 16.09 Overcast FEW080 OVC095 3 -3 65% 76.05 0.0
07 02:15 SW 6 16.09 Overcast SCT075 OVC090 3 -3 65% 76.07 0.0
07 01:55 S 7 16.09 Overcast BKN080 OVC095 2 -3 70% 0 76.1 0.0
07 01:35 SW 7 16.09 Partly Cloudy SCT090 3 -3 65% 1 76.1 0.0
07 01:15 SW 6 16.09 A Few Clouds FEW042 3 -3 65% 76.12 0.0
07 00:55 SW 6 16.09 A Few Clouds FEW045 3 -3 65% 76.12 0.0
07 00:35 Calm 16.09 Fair CLR 3 -3 65% 76.12 0.0
07 00:15 Calm 16.09 Fair CLR 3 -3 65% 76.15 0.0
06 23:35 Calm 16.09 Fair CLR 3 -3 65% 76.15 0.0
06 23:15 Calm 16.09 Fair CLR 4 -4 56% 76.17 0.0
06 22:55 Calm 16.09 Fair CLR 5 -4 53% 76.17 0.0
06 22:35 Calm 16.09 Fair CLR 4 -4 56% 76.17 0.0
06 22:15 Calm 16.09 Fair CLR 5 -4 53% 76.17 0.0
06 21:55 Calm 16.09 Fair CLR 6 -5 46% 76.2 0.0
06 21:35 Calm 16.09 Fair CLR 6 -4 49% 76.17 0.0
06 20:55 Calm 16.09 Fair CLR 8 -5 40% 76.17 0.0
06 20:35 Calm 16.09 Fair CLR 9 -5 37% 76.15 0.0
06 20:15 NW 6 16.09 Fair CLR 12 -7 26% 76.15 0.0
06 19:55 NW 9 16.09 Fair CLR 13 -7 24% 76.15 0.0
06 19:35 W 11 G 20 16.09 Fair CLR 13 -7 24% 76.17 0.0
06 19:15 NW 13 16.09 Fair CLR 13 -7 24% 76.17 0.0
06 18:55 NW 17 16.09 Fair CLR 14 -7 23% 76.17 0.0
06 18:35 W 15 16.09 A Few Clouds FEW090 14 -7 23% 76.2 0.0
06 18:15 N 19 16.09 Fair CLR 14 -6 25% 76.2 0.0
06 17:55 NW 20 16.09 A Few Clouds FEW090 13 -7 24% 76.23 0.0
06 17:35 NW 22 16.09 Partly Cloudy SCT090 14 -6 25% 76.23 0.0
06 17:15 NW 19 G 31 16.09 Partly Cloudy SCT085 14 -6 25% 76.23 0.0
06 16:55 W 9 G 20 16.09 A Few Clouds FEW085 13 -6 26% 76.23 0.0
06 16:35 W 24 G 35 16.09 Partly Cloudy SCT080 13 -6 26% 76.25 0.0
06 16:15 NW 19 G 31 16.09 Mostly Cloudy BKN080 13 -6 26% 76.28 0.0
06 15:55 NW 17 G 28 16.09 Mostly Cloudy BKN080 13 -5 28% 76.28 0.0
06 15:35 NW 26 16.09 Partly Cloudy SCT085 13 -5 28% 76.3 0.0
06 15:15 NW 19 G 33 16.09 Partly Cloudy SCT080 12 -6 28% 76.3 0.0
06 14:55 NW 19 G 39 16.09 A Few Clouds FEW080 14 -5 27% 76.33 0.0
06 14:35 NW 28 16.09 Partly Cloudy SCT075 13 -5 28% 76.33 0.0
06 14:15 NW 24 G 33 16.09 Partly Cloudy SCT075 12 -5 30% 76.33 0.0
06 13:55 W 22 G 35 16.09 A Few Clouds FEW075 13 -4 31% 76.35 0.0
06 13:35 NW 22 G 35 16.09 Partly Cloudy SCT070 12 -4 33% 76.35 0.0
06 13:15 NW 24 G 35 16.09 Mostly Cloudy BKN070 11 -5 32% 76.38 0.0
06 12:55 NW 30 16.09 Partly Cloudy SCT070 12 -5 30% 76.38 0.0
06 12:35 NW 31 G 44 16.09 A Few Clouds FEW070 12 -5 30% 76.4 0.0
06 12:15 NW 22 G 37 16.09 Partly Cloudy SCT070 12 -5 30% 76.4 0.0
06 11:55 NW 24 16.09 Partly Cloudy SCT070 SCT080 12 -5 30% 76.4 0.0
06 11:35 NW 15 G 35 16.09 Partly Cloudy SCT065 SCT075 11 -4 35% 76.4 0.0
06 11:15 NW 13 G 33 16.09 A Few Clouds FEW070 11 -5 32% 76.4 0.0
06 10:55 NW 28 16.09 A Few Clouds FEW065 11 -5 32% 76.4 0.0
06 10:35 NW 20 G 33 16.09 Partly Cloudy SCT065 10 -5 35% 8 76.4 0.0
06 10:15 NW 22 16.09 A Few Clouds FEW065 10 -4 37% 7 76.4 0.0
06 09:55 NW 24 16.09 Fair CLR 10 -5 35% 7 76.4 0.0
06 09:35 NW 19 16.09 Fair CLR 10 -4 37% 8 76.4 0.0
06 09:15 NW 15 16.09 Fair CLR 9 -3 43% 7 76.38 0.0
06 08:55 N 6 16.09 Fair CLR 8 -3 46% 76.38 0.0
06 08:35 NW 7 16.09 Fair CLR 7 -3 49% 6 76.38 0.0
06 08:15 N 7 16.09 Fair CLR 7 -3 49% 6 76.35 0.0
06 07:55 Calm 16.09 Fair CLR 5 -2 61% 76.35 0.0
06 07:35 Calm 16.09 Fair CLR 3 -2 70% 76.33 0.0
06 07:15 Calm 16.09 Fair CLR 2 -2 75% 76.3 0.0
06 06:55 Calm 16.09 Fair CLR 2 -3 70% 76.28 0.0
06 06:35 Calm 16.09 Fair CLR 2 -4 65% 76.28 0.0
06 06:15 Calm 16.09 Fair CLR 2 -3 70% 76.25 0.0
06 05:35 N 9 16.09 Fair CLR 3 -3 65% 1 76.23 0.0
06 05:15 N 11 16.09 Fair CLR 4 -4 56% 2 76.23 0.0
06 04:55 N 11 16.09 Fair CLR 4 -3 61% 2 76.2 0.0
06 04:35 N 9 16.09 Fair CLR 4 -3 61% 2 76.2 0.0
06 04:15 N 7 16.09 Fair CLR 5 -3 57% 4 76.2 0.0
06 03:55 N 9 16.09 Fair CLR 5 -4 53% 3 76.17 0.0
06 03:35 N 7 16.09 Fair CLR 5 -4 53% 4 76.17 0.0
06 03:15 Calm 16.09 Fair CLR 5 -4 53% 76.17 0.0
06 02:55 N 6 16.09 Fair CLR 4 -3 61% 76.15 0.0
06 02:35 N 7 16.09 Fair CLR 5 -3 57% 4 76.15 0.0
06 02:15 NW 7 16.09 Fair CLR 4 -2 65% 2 76.15 0.0
06 01:55 N 9 16.09 Fair CLR 5 -4 53% 3 76.15 0.0
06 01:35 NW 9 16.09 Fair CLR 5 -5 49% 3 76.15 0.0
06 01:15 N 9 16.09 Fair CLR 6 -5 46% 4 76.15 0.0
06 00:55 N 7 16.09 Fair CLR 6 -5 46% 5 76.15 0.0
06 00:35 N 9 16.09 Fair CLR 6 -4 49% 4 76.12 0.0
06 00:15 N 11 16.09 Fair CLR 6 -4 49% 4 76.1 0.0
05 23:55 N 9 16.09 Fair CLR 7 -4 46% 5 76.07 0.0
05 23:35 N 13 16.09 A Few Clouds FEW045 8 -5 40% 6 76.07 0.0
05 23:15 NW 17 16.09 A Few Clouds FEW044 8 -5 40% 6 76.07 0.0
05 22:55 NW 13 16.09 Fair CLR 8 -5 40% 6 76.05 0.0
05 22:35 NW 11 16.09 A Few Clouds FEW040 FEW050 8 -5 40% 6 76.05 0.0
05 22:15 N 11 16.09 A Few Clouds FEW043 FEW050 8 -5 40% 6 76.02 0.0
05 21:55 N 9 16.09 A Few Clouds FEW048 8 -4 43% 7 76 0.0
05 21:35 N 13 16.09 A Few Clouds FEW049 9 -5 37% 7 76 0.0
05 21:15 N 17 16.09 Fair CLR 10 -5 35% 8 75.97 0.0
05 20:55 N 15 16.09 Fair CLR 10 -5 35% 8 75.95 0.0
05 20:35 N 17 16.09 Fair CLR 11 -5 32% 75.95 0.0
05 20:15 N 15 G 26 16.09 Fair CLR 11 -5 32% 75.95 0.0
05 19:55 NW 19 16.09 Fair CLR 11 -5 32% 75.92 0.0
05 19:35 NW 24 16.09 Fair CLR 11 -5 32% 75.92 0.0
05 19:15 N 24 G 35 16.09 Fair CLR 12 -5 30% 75.9 0.0
05 18:55 N 26 16.09 Fair CLR 12 -4 33% 75.9 0.0
05 18:35 NW 30 16.09 Fair CLR 12 -4 33% 75.9 0.0
05 18:15 NW 26 G 39 16.09 Fair CLR 12 -4 33% 75.9 0.0
05 17:55 N 28 16.09 Fair CLR 13 -4 31% 75.87 0.0
05 17:35 N 22 G 35 16.09 Fair CLR 13 -4 31% 75.87 0.0
05 17:15 NW 20 G 35 16.09 Fair CLR 13 -3 33% 75.84 0.0
05 16:55 N 19 G 33 16.09 Fair CLR 13 -3 33% 75.87 0.0
05 16:35 NW 22 G 37 16.09 Fair CLR 13 -4 31% 75.87 0.0
05 16:15 NW 33 16.09 Fair and Breezy CLR 13 -3 33% 75.87 0.0
05 15:55 NW 26 G 41 16.09 Fair CLR 13 -4 31% 75.87 0.0
05 15:35 NW 33 16.09 Fair and Breezy CLR 14 -4 29% 75.87 0.0
05 15:15 NW 17 G 39 16.09 Fair CLR 14 -4 29% 75.87 0.0
05 14:55 NW 22 G 35 16.09 Fair CLR 14 -4 29% 75.87 0.0
05 14:35 N 30 16.09 Fair CLR 14 -3 31% 75.9 0.0
05 14:15 NW 22 G 33 16.09 Fair CLR 14 -3 31% 75.9 0.0
05 13:55 N 19 G 37 16.09 Fair CLR 14 -3 31% 75.9 0.0
05 13:35 NW 26 G 35 16.09 A Few Clouds FEW070 14 -2 33% 75.92 0.0
05 13:15 N 19 16.09 Partly Cloudy SCT065 13 -1 38% 75.92 0.0
05 12:55 W 13 G 24 16.09 A Few Clouds FEW065 13 -1 38% 75.95 0.0
05 12:35 Vrbl 11 16.09 A Few Clouds FEW060 12 0 44% 75.95 0.0
05 12:15 N 7 G 20 16.09 A Few Clouds FEW060 12 0 44% 75.97 0.0
05 11:55 N 13 16.09 A Few Clouds FEW055 12 1 47% 75.97 0.0
05 11:35 N 7 16.09 Fair CLR 11 1 50% 75.95 0.0
05 11:15 Vrbl 7 16.09 Fair CLR 11 1 50% 75.95 0.0
05 10:55 Vrbl 7 16.09 Fair CLR 11 2 54% 75.95 0.0
05 10:35 NW 9 16.09 Fair CLR 11 4 62% 75.92 0.0
05 10:15 NE 11 16.09 Fair CLR 10 4 67% 9 75.9 0.0
05 09:55 N 9 16.09 Fair CLR 10 3 62% 9 75.92 0.0
05 09:35 NW 11 16.09 Fair CLR 10 4 67% 9 75.9 0.0
05 09:15 N 9 16.09 Fair CLR 9 4 71% 8 75.9 0.0
05 08:55 N 9 16.09 Fair CLR 10 4 67% 9 75.9 0.0
05 08:15 N 7 16.09 Fair CLR 8 5 82% 7 75.84 0.0
05 07:55 N 7 16.09 Fair CLR 8 5 82% 7 75.82 0.0
05 07:35 Calm 16.09 Fair CLR 7 5 87% 75.77 0.0
05 07:15 Calm 16.09 Fair CLR 7 5 87% 75.77 0.0
05 06:55 Calm 16.09 Fair CLR 6 5 93% 75.77 0.0
05 06:35 Calm 16.09 Fair CLR 7 4 81% 75.77 0.0
05 06:15 Calm 16.09 Fair CLR 7 5 87% 75.79 0.0
05 05:55 Calm 16.09 Fair CLR 8 5 82% 75.79 0.0
05 05:35 Calm 16.09 Fair CLR 8 5 82% 75.79 0.0
05 04:55 Calm 16.09 Fair CLR 9 4 71% 75.77 0.0
05 04:35 Calm 16.09 Fair CLR 9 4 71% 75.74 0.0
05 04:15 Calm 16.09 A Few Clouds FEW120 8 5 82% 75.69 0.0
05 03:55 N 7 16.09 Partly Cloudy SCT120 8 5 82% 7 75.69 0.0
05 03:35 N 11 16.09 Partly Cloudy FEW085 SCT110 9 5 76% 8 75.64 0.0
05 03:15 Calm 16.09 Overcast FEW060 BKN090 OVC110 9 6 82% 75.64 0.0
05 02:55 N 7 16.09 Mostly Cloudy FEW060 SCT065 BKN080 9 6 82% 8 75.62 0.0
05 02:35 N 7 16.09 Mostly Cloudy FEW048 SCT060 BKN080 9 6 82% 8 75.62 0.0
05 02:15 N 9 16.09 Overcast BKN055 BKN065 OVC075 9 6 82% 8 75.64 0.0
05 01:55 NE 11 16.09 Light Rain FEW034 BKN055 OVC090 9 5 76% 8 75.59 0.0 0.05
05 01:35 N 13 11.27 Light Rain FEW025 SCT047 BKN055 8 6 87% 6 75.64 0.0
05 01:15 NE 9 11.27 Light Rain SCT035 BKN047 OVC075 9 6 82% 8 75.67 0.0
05 00:55 N 7 8.05 Light Rain FEW024 BKN036 OVC070 9 5 76% 8 75.69 0.0 0.05
05 00:35 NW 6 14.48 Light Rain FEW036 FEW050 OVC065 10 3 62% 75.72 0.0
05 00:15 N 13 G 24 14.48 Light Rain FEW036 SCT050 BKN065 11 2 54% 75.67 0.0
04 23:55 N 20 16.09 Light Unknown Precip SCT060 OVC075 12 1 47% 75.67 0.0
04 23:35 N 20 G 33 16.09 Overcast BKN075 OVC090 12 0 44% 75.59 0.0
04 23:15 N 26 G 35 16.09 Overcast FEW050 BKN075 OVC090 12 0 44% 75.62 0.0
04 22:55 N 20 16.09 Overcast FEW055 BKN095 OVC120 12 0 44% 75.57 0.0
04 22:35 N 22 G 35 16.09 Mostly Cloudy BKN110 12 -1 41% 75.62 0.0
04 22:15 N 26 16.09 Overcast FEW055 SCT080 OVC110 13 -1 38% 75.59 0.0
04 21:55 N 26 G 43 16.09 Mostly Cloudy FEW055 SCT075 BKN100 13 -1 38% 75.54 0.0
04 21:35 N 28 G 37 16.09 Mostly Cloudy BKN110 13 -1 38% 75.57 0.0
04 21:15 N 28 G 54 16.09 Partly Cloudy SCT100 13 -1 38% 75.54 0.0
04 20:55 N 37 G 48 16.09 Overcast and Breezy FEW075 SCT095 OVC110 14 -1 36% 75.46 0.0
04 20:35 N 31 G 46 16.09 Mostly Cloudy FEW030 BKN110 15 0 36% 75.51 0.0
04 20:15 N 39 16.09 A Few Clouds and Breezy FEW120 16 -1 31% 75.44 0.0
04 19:55 N 35 G 61 16.09 Fair and Breezy CLR 17 -1 30% 75.41 0.0
04 19:15 N 35 G 52 16.09 Fair and Breezy CLR 19 0 28% 75.31 0.0
04 18:55 N 33 G 46 16.09 Fair and Breezy CLR 21 1 27% 75.29 0.0
04 18:35 N 33 G 46 16.09 Fair and Breezy CLR 21 1 27% 75.26 0.0
04 18:15 N 33 G 44 16.09 Fair and Breezy CLR 22 2 27% 75.23 0.0
04 17:55 N 33 G 44 16.09 Fair and Breezy CLR 23 2 25% 75.21 0.0
04 17:35 N 39 16.09 Fair and Breezy CLR 23 2 25% 75.18 0.0
04 17:15 N 31 G 43 16.09 Fair CLR 24 3 25% 25 75.16 0.0
04 16:55 N 35 G 46 16.09 Fair and Breezy CLR 24 3 25% 25 75.13 0.0
04 16:35 N 30 G 43 16.09 Fair CLR 25 4 26% 25 75.11 0.0
04 16:15 NW 31 16.09 Fair CLR 25 5 28% 25 75.11 0.0
04 15:55 N 26 G 44 16.09 Fair CLR 25 6 30% 25 75.11 0.0
04 15:35 NW 24 G 43 16.09 Fair CLR 25 6 30% 25 75.08 0.0
04 15:15 NW 30 G 46 16.09 Fair CLR 26 6 28% 26 75.08 0.0
04 14:55 NW 35 G 46 16.09 A Few Clouds and Breezy FEW100 26 5 26% 26 75.08 0.0
04 14:35 NW 22 G 43 16.09 A Few Clouds FEW100 27 3 21% 26 75.06 0.0
04 14:15 W 22 G 44 16.09 Fair CLR 27 4 23% 26 75.06 0.0
04 13:55 W 26 G 39 16.09 Fair CLR 27 5 24% 26 75.06 0.0
04 13:35 W 28 16.09 Fair CLR 27 4 23% 26 75.08 0.0
04 13:15 W 31 G 41 16.09 Fair CLR 26 4 24% 26 75.08 0.0
04 12:55 NW 26 G 37 16.09 Fair CLR 26 4 24% 26 75.11 0.0
04 12:35 W 30 G 41 16.09 Fair CLR 26 5 26% 26 75.11 0.0
04 12:15 W 33 G 43 16.09 Fair and Breezy CLR 25 5 28% 25 75.11 0.0
04 11:35 W 22 16.09 Fair CLR 25 7 32% 25 75.11 0.0
04 11:15 W 17 16.09 Fair CLR 24 7 34% 25 75.11 0.0
04 10:55 W 20 16.09 Fair CLR 23 7 36% 75.11 0.0
04 10:35 W 19 G 31 16.09 Fair CLR 22 8 41% 75.11 0.0
04 10:15 W 22 16.09 Fair CLR 22 8 41% 75.11 0.0
04 09:55 SW 13 16.09 Fair CLR 20 8 46% 75.13 0.0
04 09:35 SW 11 16.09 Fair CLR 18 8 52% 75.13 0.0
04 09:15 S 11 16.09 Fair CLR 17 7 52% 75.13 0.0
04 08:55 S 9 16.09 Fair CLR 16 7 55% 75.16 0.0
04 08:35 SW 6 16.09 Fair CLR 14 7 63% 75.16 0.0
04 08:15 Calm 16.09 Fair CLR 11 6 72% 75.16 0.0
04 07:55 Calm 16.09 Fair CLR 10 6 76% 75.18 0.0
04 07:35 Calm 16.09 Partly Cloudy SCT110 8 6 87% 75.18 0.0
04 07:15 Calm 16.09 Mostly Cloudy BKN110 7 5 87% 75.18 0.0
04 06:55 Calm 16.09 Mostly Cloudy BKN110 6 5 93% 75.18 0.0
04 06:35 Calm 16.09 Mostly Cloudy BKN110 5 4 93% 75.18 0.0
04 06:15 N 7 16.09 A Few Clouds FEW120 5 3 87% 4 75.18 0.0
04 05:55 Calm 16.09 Fair CLR 5 4 93% 75.18 0.0
04 05:35 NE 6 16.09 Fair CLR 5 4 93% 75.21 0.0
04 05:15 Calm 16.09 Fair CLR 5 4 93% 75.21 0.0
04 04:55 Calm 16.09 Fair CLR 5 4 93% 75.23 0.0
04 04:35 Calm 16.09 Fair CLR 5 4 93% 75.23 0.0
04 04:15 Calm 16.09 Fair CLR 5 4 93% 75.26 0.0
Date Time (cdt) Wind (kph) Vis. (km) Weather Sky Cond. Air Dwpt Max. Min. Relative Humidity Wind Chill (°C) Heat Index (°C) altimeter (cm) sea level (mb) 1 hr 3 hr 6 hr
6 hour
Temperature (ºC) Pressure Precipitation (cm)